createdAt,value
2018-05-19T00:00:35.840Z,99.90
2018-05-19T00:03:04.136Z,99.90
2018-05-19T00:05:32.409Z,99.90
2018-05-19T00:07:59.869Z,99.90
2018-05-19T00:10:29.273Z,99.90
2018-05-19T00:12:56.793Z,99.90
2018-05-19T00:15:27.976Z,99.90
2018-05-19T00:17:55.483Z,99.90
2018-05-19T00:20:24.332Z,99.90
2018-05-19T00:22:52.588Z,99.90
2018-05-19T00:25:20.063Z,99.90
2018-05-19T00:27:48.290Z,99.90
2018-05-19T00:30:15.753Z,99.90
2018-05-19T00:32:43.232Z,99.90
2018-05-19T00:35:10.713Z,99.90
2018-05-19T00:37:38.236Z,99.90
2018-05-19T00:40:05.704Z,99.90
2018-05-19T00:42:33.180Z,99.90
2018-05-19T00:45:02.396Z,99.90
2018-05-19T00:47:29.889Z,99.90
2018-05-19T00:49:57.356Z,99.90
2018-05-19T00:52:24.832Z,99.90
2018-05-19T00:55:04.096Z,99.90
2018-05-19T00:57:33.254Z,99.90
2018-05-19T01:00:00.759Z,99.90
2018-05-19T01:02:29.628Z,99.90
2018-05-19T01:04:57.763Z,99.90
2018-05-19T01:07:25.247Z,99.90
2018-05-19T01:09:52.687Z,99.90
2018-05-19T01:12:20.172Z,99.90
2018-05-19T01:14:47.627Z,99.90
2018-05-19T01:17:18.659Z,99.90
2018-05-19T01:19:46.168Z,99.90
2018-05-19T01:22:13.783Z,99.90
2018-05-19T01:24:42.448Z,99.90
2018-05-19T01:27:09.944Z,99.90
2018-05-19T01:29:37.422Z,99.90
2018-05-19T01:32:04.932Z,99.90
2018-05-19T01:34:32.397Z,99.90
2018-05-19T01:36:59.929Z,99.90
2018-05-19T01:39:27.392Z,99.90
2018-05-19T01:41:55.783Z,99.90
2018-05-19T01:44:23.261Z,99.90
2018-05-19T01:46:54.954Z,99.90
2018-05-19T01:49:22.435Z,99.90
2018-05-19T01:51:50.676Z,99.90
2018-05-19T01:54:18.151Z,99.90
2018-05-19T01:56:45.646Z,99.90
2018-05-19T01:59:13.093Z,99.90
2018-05-19T02:01:40.570Z,99.90
2018-05-19T02:04:11.715Z,99.90
2018-05-19T02:06:40.092Z,99.90
2018-05-19T02:09:07.567Z,99.90
2018-05-19T02:11:35.061Z,99.90
2018-05-19T02:14:02.537Z,99.90
2018-05-19T02:16:30.002Z,99.90
2018-05-19T02:18:57.492Z,99.90
2018-05-19T02:21:24.984Z,99.90
2018-05-19T02:23:52.471Z,99.90
2018-05-19T02:26:19.945Z,99.90
2018-05-19T02:28:48.856Z,99.90
2018-05-19T02:31:16.318Z,99.90
2018-05-19T02:33:48.375Z,99.90
2018-05-19T02:36:15.826Z,99.90
2018-05-19T02:38:43.320Z,99.90
2018-05-19T02:41:10.818Z,99.90
2018-05-19T02:43:38.275Z,99.90
2018-05-19T02:46:05.743Z,99.90
2018-05-19T02:48:36.818Z,99.90
2018-05-19T02:51:04.245Z,99.90
2018-05-19T02:53:32.582Z,99.90
2018-05-19T02:56:00.044Z,99.90
2018-05-19T02:58:27.541Z,99.90
2018-05-19T03:00:55.850Z,99.90
2018-05-19T03:03:26.915Z,99.90
2018-05-19T03:05:54.407Z,99.90
2018-05-19T03:08:22.117Z,99.90
2018-05-19T03:10:49.597Z,99.90
2018-05-19T03:13:17.116Z,99.90
2018-05-19T03:15:44.860Z,99.90
2018-05-19T03:18:12.319Z,99.90
2018-05-19T03:20:43.863Z,99.90
2018-05-19T03:23:11.775Z,99.90
2018-05-19T03:25:39.549Z,99.90
2018-05-19T03:28:07.019Z,99.90
2018-05-19T03:30:34.481Z,99.90
2018-05-19T03:33:02.711Z,99.90
2018-05-19T03:35:35.078Z,99.90
2018-05-19T03:38:02.529Z,99.90
2018-05-19T03:40:30.957Z,99.90
2018-05-19T03:42:58.453Z,99.90
2018-05-19T03:45:26.129Z,99.90
2018-05-19T03:47:53.631Z,99.90
2018-05-19T03:50:21.092Z,99.90
2018-05-19T03:52:48.557Z,99.90
2018-05-19T03:55:16.012Z,99.90
2018-05-19T03:57:56.459Z,99.90
2018-05-19T04:00:35.799Z,99.90
2018-05-19T04:03:03.620Z,99.90
2018-05-19T04:05:31.124Z,99.90
2018-05-19T04:08:00.398Z,99.90
2018-05-19T04:10:27.945Z,99.90
2018-05-19T04:12:55.392Z,99.90
2018-05-19T04:15:22.875Z,99.90
2018-05-19T04:17:50.367Z,99.90
2018-05-19T04:20:17.854Z,99.90
2018-05-19T04:22:45.814Z,99.90
2018-05-19T04:25:13.267Z,99.90
2018-05-19T04:27:40.781Z,99.90
2018-05-19T04:30:08.288Z,99.90
2018-05-19T04:32:36.260Z,99.90
2018-05-19T04:35:06.807Z,99.90
2018-05-19T04:37:34.884Z,99.90
2018-05-19T04:40:03.109Z,99.90
2018-05-19T04:42:34.446Z,99.90
2018-05-19T04:45:01.937Z,99.90
2018-05-19T04:47:29.396Z,99.90
2018-05-19T04:50:01.179Z,99.90
2018-05-19T04:52:28.868Z,99.90
2018-05-19T04:54:57.137Z,99.90
2018-05-19T04:57:24.780Z,99.90
2018-05-19T04:59:53.162Z,99.90
2018-05-19T05:02:21.212Z,99.90
2018-05-19T05:04:48.664Z,99.90
2018-05-19T05:07:16.243Z,99.90
2018-05-19T05:09:43.765Z,99.90
2018-05-19T05:12:12.517Z,99.90
2018-05-19T05:14:40.233Z,99.90
2018-05-19T05:17:07.716Z,99.90
2018-05-19T05:19:35.358Z,99.90
2018-05-19T05:22:02.855Z,99.90
2018-05-19T05:24:30.356Z,99.90
2018-05-19T05:26:57.913Z,99.90
2018-05-19T05:29:26.159Z,99.90
2018-05-19T05:31:54.195Z,99.90
2018-05-19T05:34:21.857Z,99.90
2018-05-19T05:36:49.326Z,99.90
2018-05-19T05:39:16.850Z,99.90
2018-05-19T05:41:44.334Z,99.90
2018-05-19T05:44:12.404Z,99.90
2018-05-19T05:46:39.831Z,99.90
2018-05-19T05:49:07.329Z,99.90
2018-05-19T05:51:38.410Z,99.90
2018-05-19T05:54:05.964Z,99.90
2018-05-19T05:56:33.799Z,99.90
2018-05-19T05:59:02.010Z,99.90
2018-05-19T06:01:29.457Z,99.90
2018-05-19T06:03:56.920Z,99.90
2018-05-19T06:06:27.800Z,99.90
2018-05-19T06:08:56.997Z,99.90
2018-05-19T06:11:24.477Z,99.90
2018-05-19T06:13:52.934Z,99.90
2018-05-19T06:16:20.604Z,99.90
2018-05-19T06:18:48.096Z,99.90
2018-05-19T06:21:19.973Z,99.90
2018-05-19T06:23:47.429Z,99.90
2018-05-19T06:26:15.139Z,99.90
2018-05-19T06:28:42.603Z,99.90
2018-05-19T06:31:12.314Z,99.90
2018-05-19T06:33:39.829Z,99.90
2018-05-19T06:36:07.372Z,99.90
2018-05-19T06:38:36.000Z,99.90
2018-05-19T06:41:03.531Z,99.90
2018-05-19T06:43:31.009Z,99.90
2018-05-19T06:45:58.502Z,99.90
2018-05-19T06:48:25.964Z,99.90
2018-05-19T06:50:53.420Z,99.90
2018-05-19T06:53:24.342Z,99.90
2018-05-19T06:55:52.141Z,99.90
2018-05-19T06:58:19.676Z,99.90
2018-05-19T07:00:47.100Z,99.90
2018-05-19T07:03:14.600Z,99.90
2018-05-19T07:05:42.081Z,99.90
2018-05-19T07:08:09.751Z,99.90
2018-05-19T07:10:37.223Z,99.90
2018-05-19T07:13:04.725Z,99.90
2018-05-19T07:15:33.223Z,99.90
2018-05-19T07:18:01.489Z,99.90
2018-05-19T07:20:28.996Z,99.90
2018-05-19T07:22:56.494Z,99.90
2018-05-19T07:25:23.995Z,99.90
2018-05-19T07:27:51.479Z,99.90
2018-05-19T07:30:18.980Z,99.90
2018-05-19T07:32:47.904Z,99.90
2018-05-19T07:35:15.404Z,99.90
2018-05-19T07:37:46.975Z,99.90
2018-05-19T07:40:14.541Z,99.90
2018-05-19T07:42:42.048Z,99.90
2018-05-19T07:45:09.557Z,99.90
2018-05-19T07:47:37.901Z,99.90
2018-05-19T07:50:05.423Z,99.90
2018-05-19T07:52:36.945Z,99.90
2018-05-19T07:55:05.210Z,99.90
2018-05-19T07:57:33.398Z,99.90
2018-05-19T08:00:01.563Z,99.90
2018-05-19T08:02:29.097Z,99.90
2018-05-19T08:04:56.594Z,99.90
2018-05-19T08:07:24.399Z,99.90
2018-05-19T08:09:52.110Z,99.90
2018-05-19T08:12:19.704Z,99.90
2018-05-19T08:14:47.086Z,99.90
2018-05-19T08:17:15.538Z,99.90
2018-05-19T08:19:43.005Z,99.90
2018-05-19T08:22:10.515Z,99.90
2018-05-19T08:24:42.388Z,99.90
2018-05-19T08:27:10.578Z,99.90
2018-05-19T08:29:38.080Z,99.90
2018-05-19T08:32:05.552Z,99.90
2018-05-19T08:34:33.047Z,99.90
2018-05-19T08:37:01.296Z,99.90
2018-05-19T08:39:33.680Z,99.90
2018-05-19T08:42:01.923Z,99.90
2018-05-19T08:44:30.054Z,99.90
2018-05-19T08:46:57.592Z,99.90
2018-05-19T08:49:25.076Z,99.90
2018-05-19T08:51:52.629Z,99.90
2018-05-19T08:54:20.085Z,99.90
2018-05-19T08:56:47.595Z,99.90
2018-05-19T08:59:15.094Z,99.90
2018-05-19T09:01:44.269Z,99.90
2018-05-19T09:04:11.764Z,99.90
2018-05-19T09:06:39.352Z,99.90
2018-05-19T09:09:06.742Z,99.90
2018-05-19T09:11:34.223Z,99.90
2018-05-19T09:14:02.632Z,99.90
2018-05-19T09:16:30.089Z,99.90
2018-05-19T09:18:57.720Z,99.90
2018-05-19T09:21:25.358Z,99.90
2018-05-19T09:23:57.832Z,99.90
2018-05-19T09:26:25.300Z,99.90
2018-05-19T09:28:52.779Z,99.90
2018-05-19T09:31:20.252Z,99.90
2018-05-19T09:33:47.764Z,99.90
2018-05-19T09:36:15.266Z,99.90
2018-05-19T09:38:42.770Z,99.90
2018-05-19T09:41:10.297Z,99.90
2018-05-19T09:43:37.776Z,99.90
2018-05-19T09:46:06.073Z,99.90
2018-05-19T09:48:33.551Z,99.90
2018-05-19T09:51:01.810Z,99.90
2018-05-19T09:53:30.009Z,99.90
2018-05-19T09:55:57.501Z,99.90
2018-05-19T09:58:26.033Z,99.90
2018-05-19T10:00:53.540Z,99.90
2018-05-19T10:03:21.044Z,99.90
2018-05-19T10:05:48.523Z,99.90
2018-05-19T10:08:15.978Z,99.90
2018-05-19T10:10:43.457Z,99.90
2018-05-19T10:13:10.928Z,99.90
2018-05-19T10:15:39.060Z,99.90
2018-05-19T10:18:06.566Z,99.90
2018-05-19T10:20:34.052Z,99.90
2018-05-19T10:23:01.570Z,99.90
2018-05-19T10:25:29.039Z,99.90
2018-05-19T10:27:56.901Z,99.90
2018-05-19T10:30:24.493Z,99.90
2018-05-19T10:32:52.982Z,99.90
2018-05-19T10:35:20.486Z,99.90
2018-05-19T10:37:48.170Z,99.90
2018-05-19T10:40:16.219Z,99.90
2018-05-19T10:42:45.728Z,99.90
2018-05-19T10:45:13.242Z,99.90
2018-05-19T10:47:41.532Z,99.90
2018-05-19T10:50:09.172Z,99.90
2018-05-19T10:52:37.128Z,99.90
2018-05-19T10:55:04.609Z,99.90
2018-05-19T10:57:32.101Z,99.90
2018-05-19T10:59:59.617Z,99.90
2018-05-19T11:02:28.045Z,99.90
2018-05-19T11:04:56.168Z,99.90
2018-05-19T11:07:23.638Z,99.90
2018-05-19T11:09:51.120Z,99.90
2018-05-19T11:12:18.598Z,99.90
2018-05-19T11:14:49.027Z,99.90
2018-05-19T11:17:16.493Z,99.90
2018-05-19T11:19:43.991Z,99.90
2018-05-19T11:22:12.255Z,99.90
2018-05-19T11:24:40.021Z,99.90
2018-05-19T11:27:07.521Z,99.90
2018-05-19T11:29:35.010Z,99.90
2018-05-19T11:32:02.465Z,99.90
2018-05-19T11:34:29.927Z,99.90
2018-05-19T11:36:57.428Z,99.90
2018-05-19T11:39:25.884Z,99.90
2018-05-19T11:41:54.036Z,99.90
2018-05-19T11:44:21.540Z,99.90
2018-05-19T11:46:49.037Z,99.90
2018-05-19T11:49:16.545Z,99.90
2018-05-19T11:51:43.992Z,99.90
2018-05-19T11:54:11.511Z,99.90
2018-05-19T11:56:38.968Z,99.90
2018-05-19T11:59:07.384Z,99.90
2018-05-19T12:01:35.070Z,99.90
2018-05-19T12:04:02.557Z,99.90
2018-05-19T12:06:30.073Z,99.90
2018-05-19T12:08:58.309Z,99.40
2018-05-19T12:11:26.491Z,99.30
2018-05-19T12:13:53.983Z,98.90
2018-05-19T12:16:21.505Z,98.80
2018-05-19T12:18:48.978Z,98.50
2018-05-19T12:21:16.466Z,98.90
2018-05-19T12:23:44.710Z,98.70
2018-05-19T12:26:12.183Z,98.70
2018-05-19T12:28:40.356Z,97.60
2018-05-19T12:31:08.116Z,98.00
2018-05-19T12:33:35.592Z,97.90
2018-05-19T12:36:03.078Z,96.10
2018-05-19T12:38:30.634Z,96.40
2018-05-19T12:40:58.101Z,96.00
2018-05-19T12:43:29.342Z,95.40
2018-05-19T12:46:00.040Z,95.50
2018-05-19T12:48:28.366Z,94.00
2018-05-19T12:50:55.846Z,94.00
2018-05-19T12:53:23.430Z,94.10
2018-05-19T12:55:51.029Z,93.80
2018-05-19T12:58:26.705Z,93.10
2018-05-19T13:00:54.314Z,94.30
2018-05-19T13:03:22.573Z,93.80
2018-05-19T13:05:50.122Z,93.80
2018-05-19T13:08:17.594Z,92.60
2018-05-19T13:10:45.175Z,92.20
2018-05-19T13:13:16.034Z,92.60
2018-05-19T13:15:43.506Z,93.60
2018-05-19T13:18:11.007Z,94.80
2018-05-19T13:20:39.225Z,95.50
2018-05-19T13:23:06.749Z,96.10
2018-05-19T13:25:35.016Z,97.10
2018-05-19T13:28:06.704Z,97.10
2018-05-19T13:30:37.926Z,96.90
2018-05-19T13:33:05.410Z,95.60
2018-05-19T13:35:33.193Z,94.90
2018-05-19T13:38:00.692Z,98.00
2018-05-19T13:40:30.044Z,99.60
2018-05-19T13:42:58.595Z,99.60
2018-05-19T13:45:33.410Z,99.40
2018-05-19T13:48:00.884Z,99.90
2018-05-19T13:50:28.381Z,99.80
2018-05-19T13:52:55.855Z,99.90
2018-05-19T13:55:23.437Z,99.90
2018-05-19T13:57:51.147Z,97.40
2018-05-19T14:00:19.558Z,97.20
2018-05-19T14:02:47.071Z,98.90
2018-05-19T14:05:14.544Z,99.10
2018-05-19T14:07:41.984Z,99.40
2018-05-19T14:10:09.488Z,98.80
2018-05-19T14:12:37.674Z,98.70
2018-05-19T14:15:10.525Z,97.50
2018-05-19T14:17:38.965Z,98.80
2018-05-19T14:20:06.431Z,99.20
2018-05-19T14:22:33.897Z,98.70
2018-05-19T14:25:01.368Z,97.90
2018-05-19T14:27:28.838Z,96.60
2018-05-19T14:30:03.724Z,97.70
2018-05-19T14:32:31.181Z,97.50
2018-05-19T14:34:59.196Z,96.40
2018-05-19T14:37:26.750Z,95.70
2018-05-19T14:39:54.342Z,95.10
2018-05-19T14:42:21.820Z,95.90
2018-05-19T14:44:50.047Z,95.20
2018-05-19T14:47:17.894Z,95.20
2018-05-19T14:49:45.992Z,95.10
2018-05-19T14:52:13.541Z,94.70
2018-05-19T14:54:41.044Z,95.80
2018-05-19T14:57:08.534Z,95.70
2018-05-19T14:59:36.812Z,96.20
2018-05-19T15:02:04.292Z,96.50
2018-05-19T15:04:31.784Z,95.10
2018-05-19T15:06:59.252Z,93.70
2018-05-19T15:09:26.736Z,92.90
2018-05-19T15:11:54.220Z,92.80
2018-05-19T15:14:22.491Z,92.90
2018-05-19T15:16:59.320Z,93.30
2018-05-19T15:19:26.992Z,93.60
2018-05-19T15:21:54.442Z,94.10
2018-05-19T15:24:21.925Z,94.00
2018-05-19T15:26:49.426Z,94.10
2018-05-19T15:29:16.913Z,94.10
2018-05-19T15:31:46.052Z,94.90
2018-05-19T15:34:13.545Z,94.90
2018-05-19T15:36:41.057Z,95.00
2018-05-19T15:39:08.553Z,94.90
2018-05-19T15:41:36.000Z,94.70
2018-05-19T15:44:03.492Z,94.30
2018-05-19T15:46:35.560Z,94.70
2018-05-19T15:49:03.782Z,94.10
2018-05-19T15:51:31.276Z,94.10
2018-05-19T15:53:59.116Z,94.00
2018-05-19T15:56:26.573Z,93.80
2018-05-19T15:58:54.833Z,93.40
2018-05-19T16:01:22.284Z,93.70
2018-05-19T16:03:49.760Z,93.60
2018-05-19T16:06:17.235Z,93.80
2018-05-19T16:08:44.775Z,93.30
2018-05-19T16:11:13.194Z,93.10
2018-05-19T16:13:42.166Z,92.60
2018-05-19T16:16:13.957Z,92.60
2018-05-19T16:18:41.675Z,92.20
2018-05-19T16:21:09.127Z,90.70
2018-05-19T16:23:36.609Z,90.20
2018-05-19T16:26:04.088Z,89.40
2018-05-19T16:28:31.584Z,88.10
2018-05-19T16:31:06.281Z,86.90
2018-05-19T16:33:34.600Z,85.70
2018-05-19T16:36:02.113Z,82.70
2018-05-19T16:38:29.556Z,79.30
2018-05-19T16:40:57.054Z,78.50
2018-05-19T16:43:25.988Z,78.40
2018-05-19T16:45:53.455Z,79.10
2018-05-19T16:48:20.942Z,77.10
2018-05-19T16:50:49.174Z,76.30
2018-05-19T16:53:16.738Z,76.30
2018-05-19T16:55:44.219Z,76.40
2018-05-19T16:58:12.629Z,76.20
2018-05-19T17:00:40.090Z,77.30
2018-05-19T17:03:07.714Z,78.90
2018-05-19T17:05:35.540Z,80.10
2018-05-19T17:08:02.994Z,80.60
2018-05-19T17:10:30.712Z,80.50
2018-05-19T17:12:58.216Z,80.60
2018-05-19T17:15:26.924Z,81.80
2018-05-19T17:17:58.230Z,81.70
2018-05-19T17:20:26.611Z,83.00
2018-05-19T17:22:54.088Z,82.70
2018-05-19T17:25:21.559Z,84.10
2018-05-19T17:27:49.053Z,85.00
2018-05-19T17:30:16.593Z,86.80
2018-05-19T17:32:47.209Z,88.50
2018-05-19T17:35:14.674Z,89.60
2018-05-19T17:37:42.168Z,90.40
2018-05-19T17:40:11.362Z,91.30
2018-05-19T17:42:38.866Z,91.30
2018-05-19T17:45:06.337Z,91.50
2018-05-19T17:47:38.751Z,92.00
2018-05-19T17:50:07.028Z,92.50
2018-05-19T17:52:34.529Z,92.40
2018-05-19T17:55:02.010Z,92.50
2018-05-19T17:57:29.804Z,92.80
2018-05-19T17:59:57.310Z,93.00
2018-05-19T18:02:24.972Z,93.10
2018-05-19T18:04:52.427Z,93.20
2018-05-19T18:07:21.350Z,93.30
2018-05-19T18:09:50.370Z,93.10
2018-05-19T18:12:18.977Z,93.10
2018-05-19T18:14:46.443Z,93.10
2018-05-19T18:17:14.576Z,92.90
2018-05-19T18:19:43.060Z,93.10
2018-05-19T18:22:10.540Z,93.20
2018-05-19T18:24:39.700Z,94.00
2018-05-19T18:27:07.197Z,94.00
2018-05-19T18:29:34.690Z,94.30
2018-05-19T18:32:02.136Z,94.20
2018-05-19T18:34:34.066Z,94.00
2018-05-19T18:37:01.524Z,94.40
2018-05-19T18:39:29.822Z,95.30
2018-05-19T18:41:57.344Z,95.30
2018-05-19T18:44:24.933Z,95.40
2018-05-19T18:46:53.898Z,96.00
2018-05-19T18:49:21.384Z,96.00
2018-05-19T18:51:48.940Z,95.50
2018-05-19T18:54:16.401Z,95.80
2018-05-19T18:56:44.671Z,96.40
2018-05-19T18:59:13.117Z,98.20
2018-05-19T19:01:40.608Z,98.20
2018-05-19T19:04:08.103Z,98.10
2018-05-19T19:06:35.587Z,98.60
2018-05-19T19:09:03.896Z,99.10
2018-05-19T19:11:32.131Z,98.80
2018-05-19T19:13:59.664Z,98.80
2018-05-19T19:16:27.130Z,99.10
2018-05-19T19:18:59.119Z,99.00
2018-05-19T19:21:29.470Z,98.80
2018-05-19T19:23:57.759Z,99.90
2018-05-19T19:26:25.228Z,99.90
2018-05-19T19:28:52.768Z,99.90
2018-05-19T19:31:20.353Z,99.90
2018-05-19T19:33:47.825Z,99.90
2018-05-19T19:36:15.896Z,99.90
2018-05-19T19:38:43.455Z,99.90
2018-05-19T19:41:10.936Z,99.90
2018-05-19T19:43:38.456Z,99.90
2018-05-19T19:46:05.940Z,99.90
2018-05-19T19:48:33.438Z,99.90
2018-05-19T19:51:04.495Z,99.90
2018-05-19T19:53:32.764Z,99.90
2018-05-19T19:56:00.217Z,99.90
2018-05-19T19:58:27.724Z,99.90
2018-05-19T20:00:55.241Z,99.90
2018-05-19T20:03:23.519Z,99.90
2018-05-19T20:05:55.876Z,99.60
2018-05-19T20:08:23.381Z,99.60
2018-05-19T20:10:50.884Z,99.70
2018-05-19T20:13:18.352Z,99.50
2018-05-19T20:15:47.341Z,99.80
2018-05-19T20:18:14.819Z,99.80
2018-05-19T20:20:46.141Z,99.80
2018-05-19T20:23:14.591Z,99.90
2018-05-19T20:25:42.154Z,99.90
2018-05-19T20:28:09.662Z,99.90
2018-05-19T20:30:37.932Z,99.90
2018-05-19T20:33:06.287Z,99.90
2018-05-19T20:35:37.198Z,99.90
2018-05-19T20:38:05.008Z,99.90
2018-05-19T20:40:32.516Z,99.90
2018-05-19T20:42:59.996Z,99.90
2018-05-19T20:45:27.620Z,99.90
2018-05-19T20:47:55.095Z,99.90
2018-05-19T20:50:26.724Z,99.90
2018-05-19T20:52:54.191Z,99.90
2018-05-19T20:55:22.553Z,99.90
2018-05-19T20:57:50.857Z,99.90
2018-05-19T21:00:18.326Z,99.90
2018-05-19T21:02:45.835Z,99.90
2018-05-19T21:05:14.116Z,99.90
2018-05-19T21:07:43.346Z,99.90
2018-05-19T21:10:10.813Z,99.90
2018-05-19T21:12:39.135Z,99.90
2018-05-19T21:15:06.755Z,99.90
2018-05-19T21:17:34.268Z,99.90
2018-05-19T21:20:03.142Z,99.90
2018-05-19T21:22:35.999Z,99.90
2018-05-19T21:25:03.447Z,99.90
2018-05-19T21:27:30.940Z,99.90
2018-05-19T21:30:00.018Z,99.90
2018-05-19T21:32:27.461Z,99.90
2018-05-19T21:34:54.947Z,99.90
2018-05-19T21:37:25.836Z,99.90
2018-05-19T21:39:53.512Z,99.90
2018-05-19T21:42:21.106Z,99.90
2018-05-19T21:44:48.576Z,99.90
2018-05-19T21:47:17.429Z,99.90
2018-05-19T21:49:44.962Z,99.90
2018-05-19T21:52:16.874Z,99.90
2018-05-19T21:54:45.130Z,99.90
2018-05-19T21:57:13.394Z,99.90
2018-05-19T21:59:40.884Z,99.90
2018-05-19T22:02:08.391Z,99.90
2018-05-19T22:04:36.788Z,99.90
2018-05-19T22:07:08.679Z,99.90
2018-05-19T22:09:36.140Z,99.90
2018-05-19T22:12:03.636Z,99.90
2018-05-19T22:14:32.590Z,99.90
2018-05-19T22:17:00.560Z,99.90
2018-05-19T22:19:28.115Z,99.90
2018-05-19T22:21:59.681Z,99.90
2018-05-19T22:24:27.449Z,99.90
2018-05-19T22:26:54.943Z,99.90
2018-05-19T22:29:22.445Z,99.90
2018-05-19T22:31:49.913Z,99.90
2018-05-19T22:34:18.202Z,99.90
2018-05-19T22:36:45.678Z,99.90
2018-05-19T22:39:13.172Z,99.90
2018-05-19T22:41:40.630Z,99.90
2018-05-19T22:44:08.088Z,99.90
2018-05-19T22:46:35.575Z,99.90
2018-05-19T22:49:09.294Z,99.90
2018-05-19T22:51:37.529Z,99.90
2018-05-19T22:54:05.818Z,99.90
2018-05-19T22:56:33.319Z,99.90
2018-05-19T22:59:00.845Z,99.90
2018-05-19T23:01:29.126Z,99.90
2018-05-19T23:03:57.776Z,99.90
2018-05-19T23:06:25.232Z,99.90
2018-05-19T23:08:52.724Z,99.90
2018-05-19T23:11:20.993Z,99.90
2018-05-19T23:13:48.448Z,99.90
2018-05-19T23:16:17.042Z,99.90
2018-05-19T23:18:44.537Z,99.90
2018-05-19T23:21:12.707Z,99.90
2018-05-19T23:23:47.384Z,99.90
2018-05-19T23:26:14.902Z,99.90
2018-05-19T23:28:43.120Z,99.90
2018-05-19T23:31:10.680Z,99.90
2018-05-19T23:33:38.219Z,99.90
2018-05-19T23:36:05.917Z,99.90
2018-05-19T23:38:34.320Z,99.90
2018-05-19T23:41:05.529Z,99.90
2018-05-19T23:43:33.050Z,99.90
2018-05-19T23:46:00.516Z,99.90
2018-05-19T23:48:27.993Z,99.90
2018-05-19T23:50:55.496Z,99.90
2018-05-19T23:53:23.756Z,99.90
2018-05-19T23:55:56.728Z,99.90
2018-05-19T23:58:24.968Z,99.90
